D/T METAR WX W/DIR W/SPE G/SPE TEMP DEWP
16/01/19 03:50 EGUB 160350Z AUTO 21013KT 9999 // BKN013/// BKN028/// 09/07 Q1009 SSW (210°) 15.0mph 9°C 7°C
16/01/19 02:50 EGUB 160250Z AUTO 21012KT 9999 // BKN012/// 09/07 Q1010 SSW (210°) 13.8mph 9°C 7°C
16/01/19 01:50 EGUB 160150Z AUTO 20013KT 9999 // SCT015/// BKN036/// 08/06 Q1011 SSW (200°) 15.0mph 8°C 6°C
16/01/19 00:50 EGUB 160050Z AUTO 20009KT 9999 // FEW036/// BKN110/// 08/06 Q1012 SSW (200°) 10.4mph 8°C 6°C
15/01/19 23:50 EGUB 152350Z AUTO 20010KT 9999 // SCT030/// BKN140/// 08/06 Q1012 SSW (200°) 11.5mph 8°C 6°C
15/01/19 22:50 EGUB 152250Z 20010KT 9999 BKN032 08/06 Q1013 BLU NOSIG SSW (200°) 11.5mph 8°C 6°C
15/01/19 21:50 EGUB 152150Z 21010KT 9999 BKN028 08/05 Q1014 BLU NOSIG SSW (210°) 11.5mph 8°C 5°C
15/01/19 20:50 EGUB 152050Z 21011KT 9999 BKN025 08/05 Q1014 BLU TEMPO SCT024 WHT SSW (210°) 12.7mph 8°C 5°C
15/01/19 19:50 EGUB 151950Z 21011KT 9999 BKN027 08/06 Q1015 BLU TEMPO SCT012 GRN SSW (210°) 12.7mph 8°C 6°C
15/01/19 19:29 EGUB 151929Z 21010KT 9999 BKN030 08/06 Q1015 BLU TEMPO 7000 -DZ SCT010 GRN SSW (210°) 11.5mph 8°C 6°C
15/01/19 18:50 EGUB 151850Z 21008KT 9999 BKN021 08/06 Q1016 WHT TEMPO BKN025 BLU SSW (210°) 9.2mph 8°C 6°C
15/01/19 18:16 EGUB 151816Z 21007KT 9999 BKN018 08/07 Q1016 WHT TEMPO FEW018 BKN025 BLU SSW (210°) 8.1mph 8°C 7°C
15/01/19 16:50 EGUB 151650Z 21008KT 9999 FEW006 BKN012 08/07 Q1016 GRN TEMPO 7000 -RADZ GRN SSW (210°) 9.2mph 8°C 7°C
15/01/19 15:50 EGUB 151550Z 20008KT 7000 -DZ FEW005 BKN007 08/07 Q1017 GRN TEMPO 9999 NSW BKN020 WHT -DZ SSW (200°) 9.2mph 8°C 7°C
15/01/19 14:50 EGUB 151450Z 21008KT 9999 -DZ FEW008 BKN011 08/07 Q1017 GRN TEMPO FEW010 BKN030 BLU -DZ SSW (210°) 9.2mph 8°C 7°C
15/01/19 13:50 EGUB 151350Z 23008KT 9999 FEW012 BKN030 09/07 Q1018 BLU TEMPO 6000 -RADZ SCT012 GRN SW (230°) 9.2mph 9°C 7°C
15/01/19 12:50 EGUB 151250Z 22008KT 9999 SCT012 BKN032 09/07 Q1018 GRN TEMPO FEW012 BLU SW (220°) 9.2mph 9°C 7°C
15/01/19 12:12 EGUB 151212Z 22009KT 9999 FEW009 BKN012 08/07 Q1019 GRN TEMPO 5000 -RADZ GRN SW (220°) 10.4mph 8°C 7°C
15/01/19 10:42 EGUB 151042Z 21010KT 9999 SCT010 BKN017 OVC035 08/06 Q1020 GRN TEMPO FEW010 BKN030 BLU SSW (210°) 11.5mph 8°C 6°C
15/01/19 09:50 EGUB 150950Z 21008KT 9999 FEW010 BKN035 07/06 Q1020 BLU TEMPO SCT012 GRN SSW (210°) 9.2mph 7°C 6°C
15/01/19 08:50 EGUB 150850Z 20008KT 9999 FEW025 BKN033 06/04 Q1020 BLU TEMPO SCT022 WHT SSW (200°) 9.2mph 6°C 4°C
15/01/19 07:50 EGUB 150750Z 19008KT 9999 OVC030 05/04 Q1020 BLU TEMPO BKN024 WHT S (190°) 9.2mph 5°C 4°C
15/01/19 06:50 EGUB 150650Z 16003KT 9999 OVC026 04/03 Q1020 BLU TEMPO BKN024 WHT SSE (160°) 3.5mph 4°C 3°C
15/01/19 05:50 EGUB 150550Z AUTO 18004KT 9999 // BKN025/// 03/02 Q1021 S (180°) 4.6mph 3°C 2°C
15/01/19 04:50 EGUB 150450Z AUTO 17004KT 9999 // FEW029/// 00/M01 Q1021 S (170°) 4.6mph 0°C -1°C
15/01/19 03:50 EGUB 150350Z AUTO 19005KT 9999 // NCD 00/M01 Q1021 S (190°) 5.8mph 0°C -1°C
15/01/19 02:50 EGUB 150250Z AUTO 16005KT 9999 // FEW041/// M01/M02 Q1022 SSE (160°) 5.8mph -1°C -2°C
15/01/19 01:50 EGUB 150150Z AUTO 17004KT 9999 // NCD M01/M02 Q1022 S (170°) 4.6mph -1°C -2°C
15/01/19 00:50 EGUB 150050Z AUTO 13002KT 9999 // FEW035/// M02/M03 Q1023 SE (130°) 2.3mph -2°C -3°C
14/01/19 23:50 EGUB 142350Z AUTO 17002KT 9999 // NCD M01/M02 Q1023 S (170°) 2.3mph -1°C -2°C
14/01/19 22:50 EGUB 142250Z AUTO 15002KT 9999 // NCD M01/M03 Q1023 SSE (150°) 2.3mph -1°C -3°C
14/01/19 21:50 EGUB 142150Z AUTO 18003KT 9999 // NCD 01/M01 Q1023 S (180°) 3.5mph 1°C -1°C
14/01/19 20:50 EGUB 142050Z AUTO 23002KT 9999 // SCT046/// 04/00 Q1023 SW (230°) 2.3mph 4°C 0°C
14/01/19 19:50 EGUB 141950Z AUTO 23005KT 9999 // OVC047/// 07/02 Q1023 SW (230°) 5.8mph 7°C 2°C
14/01/19 18:50 EGUB 141850Z 29004KT 9999 BKN048 BKN250 06/01 Q1023 BLU NOSIG WNW (290°) 4.6mph 6°C 1°C
14/01/19 17:50 EGUB 141750Z 26005KT 9999 BKN048 08/01 Q1023 BLU NOSIG W (260°) 5.8mph 8°C 1°C
14/01/19 16:50 EGUB 141650Z 28005KT 9999 FEW035 BKN047 08/02 Q1022 BLU NOSIG W (280°) 5.8mph 8°C 2°C
14/01/19 15:50 EGUB 141550Z 29006KT 9999 SCT035 BKN045 08/03 Q1022 BLU NOSIG WNW (290°) 6.9mph 8°C 3°C
14/01/19 14:50 EGUB 141450Z 29006KT 9999 SCT032 BKN045 09/03 Q1022 BLU NOSIG WNW (290°) 6.9mph 9°C 3°C
14/01/19 13:50 EGUB 141350Z 30010KT 9999 SCT030 BKN040 09/03 Q1022 BLU NOSIG WNW (300°) 11.5mph 9°C 3°C
14/01/19 12:50 EGUB 141250Z 31007KT 9999 SCT028 BKN044 09/04 Q1022 BLU NOSIG NW (310°) 8.1mph 9°C 4°C
14/01/19 11:50 EGUB 141150Z 30008KT 9999 SCT026 BKN042 08/04 Q1022 BLU NOSIG WNW (300°) 9.2mph 8°C 4°C
14/01/19 10:50 EGUB 141050Z 29007KT 9999 SCT028 BKN040 08/04 Q1022 BLU NOSIG WNW (290°) 8.1mph 8°C 4°C
14/01/19 09:50 EGUB 140950Z 29003KT 9999 FEW028 07/04 Q1021 BLU NOSIG WNW (290°) 3.5mph 7°C 4°C
14/01/19 08:50 EGUB 140850Z 30004KT 9999 FEW026 05/02 Q1020 BLU NOSIG WNW (300°) 4.6mph 5°C 2°C
14/01/19 07:50 EGUB 140750Z 30006KT 9999 FEW028 05/02 Q1019 BLU NOSIG WNW (300°) 6.9mph 5°C 2°C
14/01/19 06:50 EGUB 140650Z 29004KT 9999 FEW028 05/02 Q1019 BLU NOSIG WNW (290°) 4.6mph 5°C 2°C
14/01/19 05:50 EGUB 140550Z AUTO 30009KT 9999 // BKN032/// 07/02 Q1018 WNW (300°) 10.4mph 7°C 2°C
14/01/19 04:50 EGUB 140450Z AUTO 31011KT 9999 // BKN037/// 07/02 Q1018 NW (310°) 12.7mph 7°C 2°C
14/01/19 03:50 EGUB 140350Z AUTO 30008KT 9999 // BKN038/// 07/02 Q1017 WNW (300°) 9.2mph 7°C 2°C
14/01/19 02:50 EGUB 140250Z AUTO 31008KT 9999 // SCT040/// 07/02 Q1017 NW (310°) 9.2mph 7°C 2°C
14/01/19 01:50 EGUB 140150Z AUTO 29008KT 9999 // BKN041/// 08/02 Q1016 WNW (290°) 9.2mph 8°C 2°C
14/01/19 00:50 EGUB 140050Z AUTO 28008KT 9999 // BKN048/// 08/02 Q1016 W (280°) 9.2mph 8°C 2°C
13/01/19 23:50 EGUB 132350Z AUTO 30008KT 9999 // BKN050/// 09/02 Q1016 WNW (300°) 9.2mph 9°C 2°C
13/01/19 22:50 EGUB 132250Z AUTO 31011KT 9999 // BKN044/// 09/03 Q1015 NW (310°) 12.7mph 9°C 3°C
13/01/19 21:50 EGUB 132150Z AUTO 31010KT 9999 // BKN048/// 10/04 Q1014 NW (310°) 11.5mph 10°C 4°C
13/01/19 20:50 EGUB 132050Z AUTO 32011KT 9999 // FEW040/// 09/04 Q1013 NW (320°) 12.7mph 9°C 4°C
13/01/19 19:50 EGUB 131950Z AUTO 30016G30KT 9999 // FEW050/// 10/04 Q1013 WNW (300°) 18.4mph 34.5mph 10°C 4°C
13/01/19 18:50 EGUB 131850Z AUTO 29008KT 9999 // SCT036/// BKN048/// 11/06 Q1012 WNW (290°) 9.2mph 11°C 6°C
13/01/19 17:50 EGUB 131750Z AUTO 27011G21KT 9999 // SCT046/// SCT130/// 11/06 Q1012 W (270°) 12.7mph 24.2mph 11°C 6°C
13/01/19 16:50 EGUB 131650Z AUTO 27012KT 9999 // BKN044/// 11/07 Q1012 W (270°) 13.8mph 11°C 7°C
13/01/19 15:50 EGUB 131550Z AUTO 25009KT 9999 // FEW015/// BKN020/// 10/08 Q1012 WSW (250°) 10.4mph 10°C 8°C
13/01/19 14:50 EGUB 131450Z AUTO 25013KT 9999 // SCT015/// BKN022/// 10/08 Q1012 WSW (250°) 15.0mph 10°C 8°C
13/01/19 13:50 EGUB 131350Z AUTO 25015KT 9999 // BKN016/// BKN022/// 10/08 Q1012 WSW (250°) 17.3mph 10°C 8°C
13/01/19 12:50 EGUB 131250Z AUTO 25013KT 9999 // BKN015/// BKN023/// 10/08 Q1013 WSW (250°) 15.0mph 10°C 8°C
13/01/19 11:50 EGUB 131150Z AUTO 25015KT 9999 // BKN022/// BKN041/// 11/07 Q1014 WSW (250°) 17.3mph 11°C 7°C
13/01/19 10:50 EGUB 131050Z AUTO 25014KT 9999 // BKN023/// SCT120/// 10/07 Q1015 WSW (250°) 16.1mph 10°C 7°C
13/01/19 09:50 EGUB 130950Z AUTO 25012KT 9999 // BKN130/// 09/06 Q1015 WSW (250°) 13.8mph 9°C 6°C
13/01/19 08:50 EGUB 130850Z AUTO 26011KT 9999 // OVC110/// 09/07 Q1015 W (260°) 12.7mph 9°C 7°C
13/01/19 07:50 EGUB 130750Z AUTO 25012KT 9999 // OVC120/// 09/07 Q1015 WSW (250°) 13.8mph 9°C 7°C
13/01/19 06:50 EGUB 130650Z AUTO 27011KT 9999 // BKN140/// 10/07 Q1015 W (270°) 12.7mph 10°C 7°C
13/01/19 05:50 EGUB 130550Z AUTO 25010KT 9999 // FEW013/// SCT019/// BKN150/// 10/07 Q1015 WSW (250°) 11.5mph 10°C 7°C
13/01/19 04:50 EGUB 130450Z AUTO 24009KT 9999 // BKN019/// BKN140/// 10/07 Q1016 WSW (240°) 10.4mph 10°C 7°C
13/01/19 03:50 EGUB 130350Z AUTO 27009KT 9999 // FEW021/// BKN140/// 10/08 Q1017 W (270°) 10.4mph 10°C 8°C
13/01/19 02:50 EGUB 130250Z AUTO 27008KT 9999 // BKN020/// SCT130/// 10/07 Q1018 W (270°) 9.2mph 10°C 7°C
13/01/19 01:50 EGUB 130150Z AUTO 28011KT 9999 // SCT021/// SCT120/// OVC170/// 11/07 Q1018 W (280°) 12.7mph 11°C 7°C
13/01/19 00:50 EGUB 130050Z AUTO 28010G21KT 9999 // OVC120/// 11/07 Q1019 W (280°) 11.5mph 24.2mph 11°C 7°C
12/01/19 23:50 EGUB 122350Z AUTO 28011KT 9999 // OVC120/// 11/07 Q1019 W (280°) 12.7mph 11°C 7°C
12/01/19 22:50 EGUB 122250Z AUTO 29011KT 9999 // FEW029/// OVC120/// 11/07 Q1019 WNW (290°) 12.7mph 11°C 7°C
12/01/19 21:50 EGUB 122150Z AUTO 28010KT 9999 // OVC110/// 10/06 Q1019 W (280°) 11.5mph 10°C 6°C
12/01/19 20:50 EGUB 122050Z AUTO 28011KT 9999 // SCT036/// BKN100/// 09/06 Q1020 W (280°) 12.7mph 9°C 6°C
12/01/19 19:50 EGUB 121950Z AUTO 28009KT 9999 // OVC090/// 09/06 Q1020 W (280°) 10.4mph 9°C 6°C
12/01/19 18:50 EGUB 121850Z AUTO 27010KT 9999 // OVC090/// 09/05 Q1020 W (270°) 11.5mph 9°C 5°C
12/01/19 17:50 EGUB 121750Z AUTO 26011KT 9999 // OVC100/// 09/05 Q1020 W (260°) 12.7mph 9°C 5°C
12/01/19 16:50 EGUB 121650Z AUTO 27008KT 9999 // FEW029/// BKN110/// 09/05 Q1020 W (270°) 9.2mph 9°C 5°C
12/01/19 15:50 EGUB 121550Z AUTO 27008KT 9999 // FEW030/// BKN100/// 09/05 Q1021 W (270°) 9.2mph 9°C 5°C
12/01/19 14:50 EGUB 121450Z 29009KT 9999 SCT035 BKN060 BKN100 10/05 Q1022 BLU TEMPO 7000 -RA SCT020 WHT WNW (290°) 10.4mph 10°C 5°C
12/01/19 13:50 EGUB 121350Z 28010KT 9999 FEW020 BKN140 10/06 Q1022 BLU TEMPO SCT022 WHT W (280°) 11.5mph 10°C 6°C
12/01/19 12:50 EGUB 121250Z 27009KT 9999 FEW018 SCT028 BKN080 10/07 Q1022 BLU TEMPO SCT020 WHT W (270°) 10.4mph 10°C 7°C
12/01/19 11:50 EGUB 121150Z 26011KT 9999 FEW016 OVC110 09/07 Q1022 BLU TEMPO SCT020 WHT W (260°) 12.7mph 9°C 7°C
12/01/19 10:50 EGUB 121050Z 24009KT 9999 FEW014 OVC023 09/07 Q1023 WHT TEMPO 7000 -RADZ BKN014 GRN WSW (240°) 10.4mph 9°C 7°C
12/01/19 09:50 EGUB 120950Z 26010KT 9999 FEW012 SCT014 OVC025 09/07 Q1023 GRN TEMPO 5000 -RADZ GRN W (260°) 11.5mph 9°C 7°C
12/01/19 08:50 EGUB 120850Z 26011KT 9999 SCT015 BKN035 BKN050 08/06 Q1024 WHT TEMPO 7000 -RADZ BKN014 GRN W (260°) 12.7mph 8°C 6°C
12/01/19 07:50 EGUB 120750Z 25011KT 9999 SCT015 BKN040 BKN210 08/06 Q1024 WHT TEMPO 7000 -RA BKN014 GRN WSW (250°) 12.7mph 8°C 6°C
12/01/19 06:50 EGUB 120650Z AUTO 25009KT 9999 // OVC019/// 09/06 Q1024 WSW (250°) 10.4mph 9°C 6°C
12/01/19 05:50 EGUB 120550Z AUTO 24006KT 9999 // OVC020/// 08/06 Q1025 WSW (240°) 6.9mph 8°C 6°C
12/01/19 04:50 EGUB 120450Z AUTO 25008KT 9999 // OVC019/// 09/06 Q1026 WSW (250°) 9.2mph 9°C 6°C
12/01/19 03:50 EGUB 120350Z AUTO 24007KT 9999 // BKN021/// 08/05 Q1026 WSW (240°) 8.1mph 8°C 5°C
12/01/19 02:50 EGUB 120250Z AUTO 25007KT 9999 // BKN025/// 08/04 Q1027 WSW (250°) 8.1mph 8°C 4°C
12/01/19 01:50 EGUB 120150Z AUTO 25005KT 9999 // OVC032/// 08/04 Q1028 WSW (250°) 5.8mph 8°C 4°C
12/01/19 00:50 EGUB 120050Z AUTO 24002KT 9999 // OVC034/// 07/04 Q1028 WSW (240°) 2.3mph 7°C 4°C
11/01/19 23:50 EGUB 112350Z AUTO 25006KT 9999 // OVC033/// 07/04 Q1029 WSW (250°) 6.9mph 7°C 4°C
11/01/19 22:50 EGUB 112250Z AUTO 27006KT 9999 // OVC034/// 07/04 Q1030 W (270°) 6.9mph 7°C 4°C
11/01/19 21:50 EGUB 112150Z AUTO 28005KT 9999 // OVC035/// 07/04 Q1030 W (280°) 5.8mph 7°C 4°C
11/01/19 20:50 EGUB 112050Z AUTO 27004KT 9999 // OVC034/// 07/04 Q1030 W (270°) 4.6mph 7°C 4°C
11/01/19 19:50 EGUB 111950Z AUTO 27004KT 9999 // BKN032/// 07/04 Q1030 W (270°) 4.6mph 7°C 4°C
11/01/19 18:50 EGUB 111850Z AUTO 31004KT 9999 // OVC026/// 07/04 Q1031 NW (310°) 4.6mph 7°C 4°C
11/01/19 17:50 EGUB 111750Z AUTO 30006KT 9999 // BKN025/// 07/05 Q1031 WNW (300°) 6.9mph 7°C 5°C
11/01/19 16:50 EGUB 111650Z AUTO 28003KT 9999 // FEW018/// BKN028/// 07/05 Q1030 W (280°) 3.5mph 7°C 5°C
11/01/19 15:50 EGUB 111550Z 29003KT 9999 SCT024 BKN035 07/05 Q1030 WHT TEMPO FEW024 BLU WNW (290°) 3.5mph 7°C 5°C
11/01/19 15:28 EGUB 111528Z 32004KT 9999 SCT020 BKN250 08/05 Q1031 WHT TEMPO FEW020 BLU NW (320°) 4.6mph 8°C 5°C
11/01/19 14:50 EGUB 111450Z 32006KT 9999 FEW020 BKN250 08/04 Q1031 BLU NOSIG NW (320°) 6.9mph 8°C 4°C
11/01/19 13:50 EGUB 111350Z 32005KT 9999 FEW016 BKN220 08/05 Q1030 BLU NOSIG NW (320°) 5.8mph 8°C 5°C
11/01/19 12:50 EGUB 111250Z 31006KT 9999 FEW014 BKN220 08/05 Q1031 BLU TEMPO SCT018 WHT NW (310°) 6.9mph 8°C 5°C
11/01/19 11:50 EGUB 111150Z 31005KT 9999 FEW012 BKN220 07/05 Q1031 BLU NOSIG NW (310°) 5.8mph 7°C 5°C
11/01/19 10:50 EGUB 111050Z 30003KT 9999 SCT034 BKN050 07/06 Q1031 BLU NOSIG WNW (300°) 3.5mph 7°C 6°C
11/01/19 09:50 EGUB 110950Z 31001KT 9999 SCT033 BKN050 05/05 Q1031 BLU NOSIG NW (310°) 1.2mph 5°C 5°C
11/01/19 08:50 EGUB 110850Z 00000KT 9999 -RA SCT027 BKN050 04/04 Q1031 BLU NOSIG -RA N (0°) 4°C 4°C
11/01/19 07:50 EGUB 110750Z 33001KT 8000 BR BKN024 05/04 Q1030 WHT BECMG BKN050 BLU BR NNW (330°) 1.2mph 5°C 4°C
11/01/19 06:50 EGUB 110650Z 00000KT 9999 BKN024 05/04 Q1030 WHT BECMG BKN050 BLU N (0°) 5°C 4°C
11/01/19 05:50 EGUB 110550Z AUTO 04001KT 6000 // OVC025/// 05/04 Q1030 NE (40°) 1.2mph 5°C 4°C
11/01/19 04:50 EGUB 110450Z AUTO 34005KT 5000 // BKN022/// 06/05 Q1029 NNW (340°) 5.8mph 6°C 5°C
11/01/19 03:50 EGUB 110350Z AUTO 34004KT 9999 // BKN021/// BKN050/// 06/05 Q1030 NNW (340°) 4.6mph 6°C 5°C
11/01/19 02:50 EGUB 110250Z AUTO 31003KT 9999 // FEW023/// BKN050/// 05/04 Q1029 NW (310°) 3.5mph 5°C 4°C
11/01/19 01:50 EGUB 110150Z AUTO 02001KT 3600 // SCT021/// OVC048/// 04/04 Q1029 NNE (20°) 1.2mph 4°C 4°C
11/01/19 00:50 EGUB 110050Z AUTO 13002KT 4600 // OVC049/// 05/05 Q1029 SE (130°) 2.3mph 5°C 5°C
10/01/19 23:50 EGUB 102350Z AUTO 16003KT 2700 // OVC049/// 05/05 Q1030 SSE (160°) 3.5mph 5°C 5°C
10/01/19 22:50 EGUB 102250Z AUTO 18003KT 2400 // FEW043/// BKN050/// 05/04 Q1030 S (180°) 3.5mph 5°C 4°C
10/01/19 21:50 EGUB 102150Z AUTO 16003KT 2500 // FEW006/// BKN043/// 04/04 Q1030 SSE (160°) 3.5mph 4°C 4°C
10/01/19 20:50 EGUB 102050Z AUTO 17003KT 3200 // OVC005/// 05/04 Q1030 S (170°) 3.5mph 5°C 4°C
10/01/19 19:50 EGUB 101950Z AUTO 24001KT 4100 // OVC006/// 04/04 Q1030 WSW (240°) 1.2mph 4°C 4°C
10/01/19 18:50 EGUB 101850Z AUTO 00000KT 5000 // OVC004/// 04/04 Q1030 N (0°) 4°C 4°C
10/01/19 17:50 EGUB 101750Z 00000KT 4000 BR OVC005 04/03 Q1030 YLO1 TEMPO 3000 -DZ BKN004 YLO2 BR N (0°) 4°C 3°C
10/01/19 16:50 EGUB 101650Z 30001KT 5000 -RA OVC006 04/03 Q1030 YLO1 TEMPO 3000 RADZ BKN004 YLO2 -RA WNW (300°) 1.2mph 4°C 3°C
10/01/19 16:38 EGUB 101638Z 30002KT 4500 -RADZ BKN005 OVC007 04/02 Q1030 YLO1 TEMPO 3000 BKN004 YLO2 -RA -DZ WNW (300°) 2.3mph 4°C 2°C
10/01/19 15:50 EGUB 101550Z 28002KT 9999 OVC009 04/02 Q1030 GRN BECMG BKN006 YLO1 W (280°) 2.3mph 4°C 2°C
10/01/19 14:50 EGUB 101450Z 27003KT 9999 OVC011 04/01 Q1030 GRN BECMG BKN006 YLO1 W (270°) 3.5mph 4°C 1°C
10/01/19 13:50 EGUB 101350Z 28003KT 9999 OVC012 03/01 Q1030 GRN NOSIG W (280°) 3.5mph 3°C 1°C
10/01/19 12:50 EGUB 101250Z 23001KT 9999 BKN012 03/01 Q1030 GRN NOSIG SW (230°) 1.2mph 3°C 1°C
10/01/19 12:10 EGUB 101210Z 22002KT 9999 SCT013 BKN015 02/00 Q1031 GRN NOSIG SW (220°) 2.3mph 2°C 0°C
10/01/19 10:50 EGUB 101050Z 21002KT 9999 BKN022 BKN060 BKN090 01/00 Q1032 WHT NOSIG SSW (210°) 2.3mph 1°C 0°C
10/01/19 10:32 EGUB 101032Z 00000KT 9999 SCT022 SCT070 BKN090 00/M00 Q1031 WHT NOSIG N (0°) 0°C 0°C
10/01/19 09:50 EGUB 100950Z 22001KT CAVOK M00/M01 Q1031 BLU NOSIG SW (220°) 1.2mph 0°C -1°C
10/01/19 08:50 EGUB 100850Z 00000KT CAVOK M01/M01 Q1031 BLU NOSIG N (0°) -1°C -1°C